Time;durP1;ratioP1;P1;durP2;ratioP2;P2;SDS_P1;SDS_P2;PMS_P1;PMS_P2;Temp;Humidity;BMP_temperature;BMP_pressure;BME280_temperature;BME280_humidity;BME280_pressure;Samples;Min_cycle;Max_cycle;Signal;HPM_P1;HPM_P2
2022/04/28 00:02:48;;;;;;;18.83;9.67;;;;;;;9.46;85.85;101431.97;10500969;28;20232;-72
2022/04/28 00:07:51;;;;;;;17.77;9.03;;;;;;;9.45;86.78;101433.69;10501173;28;20661;-71
2022/04/28 00:12:56;;;;;;;25.40;9.30;;;;;;;9.45;86.95;101443.19;10500814;28;20222;-71
2022/04/28 00:18:01;;;;;;;19.03;9.40;;;;;;;9.45;85.69;101453.53;10500803;28;20215;-72
2022/04/28 00:23:05;;;;;;;20.00;8.67;;;;;;;9.37;86.08;101450.00;10500762;28;20223;-70
2022/04/28 00:28:08;;;;;;;16.23;8.57;;;;;;;9.36;84.90;101449.13;10499411;28;20212;-66
2022/04/28 00:33:12;;;;;;;17.87;8.43;;;;;;;9.29;85.47;101445.59;10500051;28;20224;-71
2022/04/28 00:38:16;;;;;;;15.50;8.40;;;;;;;9.16;86.69;101445.41;10499887;28;20216;-67
2022/04/28 00:43:26;;;;;;;14.63;7.83;;;;;;;9.04;86.72;101445.25;10499905;28;20215;-66
2022/04/28 00:53:52;;;;;;;15.67;8.60;;;;;;;8.86;87.62;101445.88;10508268;28;20584;-68
2022/04/28 00:58:58;;;;;;;19.63;8.33;;;;;;;8.85;88.12;101454.47;10507976;28;20653;-67
2022/04/28 01:04:03;;;;;;;14.73;7.33;;;;;;;8.69;89.33;101457.69;10507761;28;20235;-67
2022/04/28 01:09:06;;;;;;;16.50;7.70;;;;;;;8.63;87.78;101443.81;10507695;28;20274;-68
2022/04/28 01:14:09;;;;;;;11.60;6.93;;;;;;;8.58;89.50;101443.72;10507460;28;20219;-66
2022/04/28 01:19:14;;;;;;;14.90;6.93;;;;;;;8.54;90.98;101436.75;10507135;28;20646;-66
2022/04/28 01:24:21;;;;;;;13.27;7.00;;;;;;;8.47;91.47;101434.94;10507033;28;20665;-66
2022/04/28 01:29:25;;;;;;;13.23;6.47;;;;;;;8.42;92.65;101439.13;10506789;28;20223;-69
2022/04/28 01:34:28;;;;;;;12.93;6.50;;;;;;;8.44;91.44;101432.28;10506785;28;20212;-70
2022/04/28 01:39:35;;;;;;;12.00;6.53;;;;;;;8.27;92.04;101425.97;10506379;28;20235;-69
2022/04/28 01:44:38;;;;;;;13.23;6.43;;;;;;;8.21;91.92;101423.28;10506403;28;20228;-77
2022/04/28 01:49:42;;;;;;;12.77;6.43;;;;;;;8.21;90.99;101412.94;10506608;28;20685;-68
2022/04/28 01:54:59;;;;;;;11.37;6.30;;;;;;;8.13;92.37;101425.72;10506419;28;20216;-72
2022/04/28 02:00:04;;;;;;;12.53;6.03;;;;;;;8.13;91.36;101419.66;10506322;28;20312;-72
2022/04/28 02:05:08;;;;;;;15.43;6.10;;;;;;;8.11;89.53;101418.78;10505664;28;20236;-70
2022/04/28 02:10:13;;;;;;;12.13;5.50;;;;;;;8.04;91.16;101419.53;10505900;28;20677;-69
2022/04/28 02:15:16;;;;;;;12.03;5.67;;;;;;;7.98;91.20;101409.94;10505674;28;20226;-72
2022/04/28 02:20:20;;;;;;;12.43;5.87;;;;;;;7.89;93.69;101414.97;10505314;28;20224;-71
2022/04/28 02:25:24;;;;;;;14.10;5.90;;;;;;;7.83;94.85;101413.97;10505079;28;20218;-71
2022/04/28 02:30:30;;;;;;;12.23;6.37;;;;;;;7.78;95.36;101411.28;10504999;28;20220;-74
2022/04/28 02:35:33;;;;;;;10.67;5.73;;;;;;;7.74;95.13;101412.09;10504857;28;20276;-75
2022/04/28 02:40:38;;;;;;;13.07;5.67;;;;;;;7.71;94.31;101413.75;10504662;28;20220;-73
2022/04/28 02:45:41;;;;;;;14.10;5.83;;;;;;;7.61;92.79;101414.44;10504360;28;20226;-71
2022/04/28 02:50:45;;;;;;;14.13;6.80;;;;;;;7.66;92.69;101413.66;10504078;28;20352;-72
2022/04/28 02:55:49;;;;;;;11.47;6.20;;;;;;;7.60;93.47;101417.84;10503985;28;20238;-71
2022/04/28 03:00:52;;;;;;;10.93;5.77;;;;;;;7.53;93.05;101416.88;10503623;28;20234;-71
2022/04/28 03:11:18;;;;;;;13.63;6.83;;;;;;;7.35;94.86;101426.81;10502714;28;20219;-70
2022/04/28 03:16:21;;;;;;;16.17;5.60;;;;;;;7.31;93.61;101429.34;10503722;28;20220;-71
2022/04/28 03:21:25;;;;;;;11.80;6.33;;;;;;;7.23;94.55;101439.50;10502971;28;20234;-70
2022/04/28 03:26:29;;;;;;;15.13;7.17;;;;;;;7.23;94.54;101439.50;10502804;28;20246;-73
2022/04/28 03:31:33;;;;;;;11.87;5.90;;;;;;;7.16;94.77;101444.50;10502524;28;20254;-71
2022/04/28 03:36:51;;;;;;;12.60;5.80;;;;;;;7.15;93.92;101443.63;10502476;28;20306;-73
2022/04/28 03:41:57;;;;;;;13.33;6.37;;;;;;;7.16;94.59;101439.34;10502233;28;20671;-73
2022/04/28 03:47:00;;;;;;;13.83;6.17;;;;;;;7.07;95.93;101450.34;10502259;28;20526;-71
2022/04/28 03:52:05;;;;;;;12.10;6.10;;;;;;;7.17;95.28;101447.13;10501973;28;20548;-72
2022/04/28 03:57:10;;;;;;;12.27;5.87;;;;;;;7.15;93.55;101447.91;10501388;28;20220;-71
2022/04/28 04:02:13;;;;;;;14.03;6.30;;;;;;;7.22;91.21;101453.25;10501067;28;20232;-72
2022/04/28 04:07:19;;;;;;;11.33;5.33;;;;;;;7.27;91.63;101450.75;10501218;28;20216;-73
2022/04/28 04:12:25;;;;;;;12.40;5.73;;;;;;;7.30;92.91;101450.84;10501250;28;20221;-71
2022/04/28 04:17:28;;;;;;;11.10;5.37;;;;;;;7.41;89.59;101460.53;10501152;28;20303;-71
2022/04/28 04:22:38;;;;;;;11.97;5.57;;;;;;;7.53;89.28;101467.66;10499868;28;20285;-71
2022/04/28 04:27:43;;;;;;;10.30;5.40;;;;;;;7.63;88.91;101459.22;10500836;28;20227;-69
2022/04/28 04:32:46;;;;;;;10.77;5.03;;;;;;;7.77;88.15;101460.38;10500640;28;20224;-71
2022/04/28 04:37:50;;;;;;;10.10;5.00;;;;;;;7.89;88.48;101469.22;10500558;28;20219;-70
2022/04/28 04:42:54;;;;;;;10.57;4.90;;;;;;;8.00;88.20;101472.00;10500307;28;20224;-70
2022/04/28 04:47:58;;;;;;;11.23;5.00;;;;;;;8.10;86.76;101473.91;10500251;28;20230;-72
2022/04/28 04:53:02;;;;;;;12.00;5.67;;;;;;;8.12;85.81;101467.94;10500460;28;20219;-72
2022/04/28 04:58:07;;;;;;;13.87;5.97;;;;;;;8.36;84.05;101466.63;10500210;28;20644;-71
2022/04/28 05:03:11;;;;;;;11.23;5.13;;;;;;;8.52;80.78;101464.34;10499675;28;20232;-72
2022/04/28 05:08:16;;;;;;;14.13;6.07;;;;;;;8.62;82.34;101463.63;10497452;28;20440;-70
2022/04/28 05:13:20;;;;;;;12.00;5.00;;;;;;;8.77;79.85;101456.09;10498472;28;20294;-72
2022/04/28 05:18:24;;;;;;;13.03;5.43;;;;;;;8.94;83.57;101469.25;10496177;28;20220;-71
2022/04/28 05:23:27;;;;;;;15.40;5.53;;;;;;;9.03;80.28;101459.91;10498403;28;20256;-71
2022/04/28 05:28:32;;;;;;;10.87;5.30;;;;;;;9.22;80.98;101464.50;10496955;28;20224;-68
2022/04/28 05:33:37;;;;;;;11.23;5.03;;;;;;;9.36;79.70;101462.06;10477639;28;20223;-67
2022/04/28 05:38:41;;;;;;;12.37;6.63;;;;;;;9.46;78.16;101470.84;10494180;28;20223;-68
2022/04/28 05:49:06;;;;;;;14.33;5.40;;;;;;;9.58;77.46;101478.78;10487794;28;20560;-68
2022/04/28 05:54:10;;;;;;;13.43;4.63;;;;;;;9.69;78.70;101474.56;10506388;28;20220;-68
2022/04/28 05:59:16;;;;;;;14.60;5.47;;;;;;;9.86;75.85;101480.78;10484765;28;20235;-67
2022/04/28 06:04:19;;;;;;;12.23;5.80;;;;;;;10.05;76.09;101477.53;10464397;28;20297;-67
2022/04/28 06:09:22;;;;;;;11.50;4.73;;;;;;;10.20;73.60;101475.13;10464314;28;20220;-67
2022/04/28 06:14:27;;;;;;;11.57;5.23;;;;;;;10.36;73.63;101480.47;10464014;28;20216;-66
2022/04/28 06:19:30;;;;;;;14.03;4.83;;;;;;;10.44;72.50;101483.13;10463890;28;20235;-66
2022/04/28 06:24:34;;;;;;;12.50;5.60;;;;;;;10.56;72.17;101488.41;10463808;28;20221;-68
2022/04/28 06:29:39;;;;;;;13.10;5.03;;;;;;;10.69;70.77;101502.34;10500697;28;20581;-69
2022/04/28 06:34:42;;;;;;;11.87;4.97;;;;;;;10.89;69.74;101508.59;10505483;28;20216;-67
2022/04/28 06:39:45;;;;;;;12.00;5.67;;;;;;;11.11;69.60;101506.13;10504508;28;20245;-66
2022/04/28 06:44:50;;;;;;;12.57;5.47;;;;;;;11.20;68.66;101495.78;10468035;28;20237;-68
2022/04/28 06:49:53;;;;;;;12.03;5.20;;;;;;;11.34;68.82;101509.72;10462931;28;20244;-68
2022/04/28 06:54:56;;;;;;;11.80;5.37;;;;;;;11.43;71.03;101504.56;10462686;28;20561;-66
2022/04/28 07:00:02;;;;;;;12.37;5.80;;;;;;;11.54;70.12;101508.06;10462789;28;20228;-68
2022/04/28 07:05:07;;;;;;;11.87;5.40;;;;;;;11.56;69.88;101516.75;10462006;28;20704;-67
2022/04/28 07:10:10;;;;;;;13.80;6.07;;;;;;;11.51;67.86;101515.00;10462247;28;20225;-66
2022/04/28 07:15:15;;;;;;;17.10;6.07;;;;;;;11.50;68.70;101518.47;10461893;28;20221;-68
2022/04/28 07:20:18;;;;;;;18.37;5.43;;;;;;;11.48;69.89;101520.19;10461435;28;20224;-67
2022/04/28 07:25:21;;;;;;;14.80;5.97;;;;;;;11.34;68.98;101516.66;10461314;28;20217;-65
2022/04/28 07:30:26;;;;;;;17.83;6.17;;;;;;;11.28;70.44;101522.69;10461054;28;20221;-68
2022/04/28 07:35:29;;;;;;;15.73;6.07;;;;;;;11.59;70.65;101516.78;10488744;28;20212;-68
2022/04/28 07:40:33;;;;;;;13.07;5.70;;;;;;;11.68;69.72;101512.50;10500650;28;20227;-67
2022/04/28 07:45:38;;;;;;;13.87;5.53;;;;;;;11.80;71.94;101518.63;10500432;28;20212;-67
2022/04/28 07:50:49;;;;;;;14.33;5.50;;;;;;;11.80;69.74;101523.84;10499203;28;20216;-65
2022/04/28 08:01:14;;;;;;;20.30;6.77;;;;;;;12.05;68.87;101536.03;10499127;28;20216;-63
2022/04/28 08:06:17;;;;;;;13.77;5.40;;;;;;;12.25;70.16;101534.34;10498962;28;20682;-64
2022/04/28 08:11:21;;;;;;;13.10;5.43;;;;;;;12.38;68.54;101530.03;10497113;28;20357;-70
2022/04/28 08:16:25;;;;;;;17.23;5.57;;;;;;;12.64;68.10;101536.16;10499882;28;20239;-66
2022/04/28 08:21:29;;;;;;;11.07;5.27;;;;;;;12.67;66.39;101526.59;10500881;28;20215;-69
2022/04/28 08:26:32;;;;;;;14.10;5.40;;;;;;;12.87;67.81;101534.41;10499802;28;20180;-68
2022/04/28 08:31:43;;;;;;;16.00;5.17;;;;;;;13.23;63.43;101525.69;10499692;28;20192;-68
2022/04/28 08:36:48;;;;;;;15.27;5.63;;;;;;;13.40;64.80;101535.22;10497336;28;20184;-70
2022/04/28 08:41:53;;;;;;;11.67;4.33;;;;;;;13.46;62.49;101532.56;10499580;28;20211;-68
2022/04/28 08:47:00;;;;;;;11.47;4.10;;;;;;;13.58;63.70;101537.75;10499565;28;20188;-69
2022/04/28 08:52:06;;;;;;;11.03;4.00;;;;;;;13.76;63.48;101535.09;10496732;28;20195;-69
2022/04/28 08:57:11;;;;;;;16.93;6.00;;;;;;;13.88;61.18;101535.03;10497884;28;20628;-69
2022/04/28 09:02:23;;;;;;;11.50;4.27;;;;;;;14.02;59.32;101527.13;10498765;28;20215;-67
2022/04/28 09:07:34;;;;;;;14.23;4.63;;;;;;;14.38;59.60;101526.06;10498968;28;20184;-67
2022/04/28 09:12:54;;;;;;;14.10;5.77;;;;;;;14.59;57.90;101523.28;10505633;28;20212;-70
2022/04/28 09:17:59;;;;;;;11.73;4.23;;;;;;;14.80;58.79;101523.13;10500562;28;20299;-69
2022/04/28 09:23:02;;;;;;;8.77;4.07;;;;;;;15.20;57.66;101526.22;10514058;28;20223;-68
2022/04/28 09:28:07;;;;;;;8.10;4.03;;;;;;;15.29;57.95;101521.75;10507301;28;20227;-66
2022/04/28 09:33:12;;;;;;;9.90;4.63;;;;;;;15.72;55.91;101509.94;10507719;28;20730;-67
2022/04/28 09:38:16;;;;;;;8.53;3.80;;;;;;;16.80;54.70;101517.09;10507097;28;20204;-68
2022/04/28 09:43:39;;;;;;;5.73;2.77;;;;;;;17.59;49.57;101513.88;10506880;28;20228;-70
2022/04/28 09:48:44;;;;;;;7.83;3.40;;;;;;;18.08;47.69;101504.94;10506746;28;20212;-67
2022/04/28 09:53:48;;;;;;;8.53;3.40;;;;;;;19.02;47.84;101498.25;10506590;28;20212;-68
2022/04/28 09:58:52;;;;;;;8.50;3.40;;;;;;;19.66;44.95;101493.84;10506186;28;20602;-68
2022/04/28 10:03:57;;;;;;;8.07;3.40;;;;;;;19.90;43.36;101488.72;10505774;28;20732;-69
2022/04/28 10:09:03;;;;;;;9.07;3.67;;;;;;;20.08;43.83;101487.31;10506943;28;20271;-68
2022/04/28 10:14:06;;;;;;;7.37;3.37;;;;;;;20.81;42.32;101485.81;10505151;28;20622;-68
2022/04/28 10:19:16;;;;;;;6.93;3.07;;;;;;;21.61;41.88;101478.50;10504167;28;20184;-67
2022/04/28 10:35:08;;;;;;;7.37;2.90;;;;;;;21.90;37.65;101470.34;10463225;28;20681;-70
2022/04/28 10:40:16;;;;;;;8.53;3.90;;;;;;;22.15;38.04;101486.13;10474254;28;20654;-65
2022/04/28 10:45:22;;;;;;;6.40;3.03;;;;;;;22.73;39.55;101475.78;10506055;28;20549;-68
2022/04/28 10:50:34;;;;;;;6.97;3.30;;;;;;;23.19;37.48;101479.97;10504295;28;20310;-67
2022/04/28 10:55:41;;;;;;;9.57;3.90;;;;;;;23.84;37.60;101467.25;10504113;28;20220;-69
2022/04/28 11:00:52;;;;;;;7.97;3.70;;;;;;;23.61;34.92;101467.44;10503827;28;20253;-68
2022/04/28 11:06:08;;;;;;;7.73;2.90;;;;;;;24.15;35.84;101456.06;10503316;28;20288;-70
2022/04/28 11:11:13;;;;;;;7.40;3.50;;;;;;;23.71;35.30;101468.72;10497516;28;20215;-70
2022/04/28 11:16:18;;;;;;;12.43;4.17;;;;;;;21.49;39.09;101471.91;10475693;28;20233;-68
2022/04/28 11:21:23;;;;;;;9.27;3.97;;;;;;;22.78;38.88;101479.09;10472678;28;20216;-67
2022/04/28 11:26:28;;;;;;;10.07;4.13;;;;;;;24.29;37.03;101458.03;10502513;28;20514;-66
2022/04/28 11:31:32;;;;;;;12.80;4.60;;;;;;;24.82;36.44;101454.44;10499022;28;20489;-69
2022/04/28 11:36:41;;;;;;;9.35;3.90;;;;;;;24.47;35.29;101459.78;10502324;28;20298;-67
2022/04/28 11:41:46;;;;;;;10.13;4.33;;;;;;;22.90;35.93;101462.69;10541634;28;20223;-67
2022/04/28 11:46:50;;;;;;;8.17;3.97;;;;;;;23.48;37.08;101462.78;10543534;28;20191;-67
2022/04/28 11:51:55;;;;;;;11.38;4.15;;;;;;;25.39;36.06;101457.66;10542986;28;20207;-65
2022/04/28 11:57:18;;;;;;;8.70;3.47;;;;;;;25.95;34.84;101458.06;10542834;28;20191;-67
2022/04/28 12:02:26;;;;;;;10.85;4.15;;;;;;;25.72;35.17;101450.50;10542559;28;20545;-68
2022/04/28 12:07:31;;;;;;;;;;;;;;;26.11;35.29;101453.66;10518209;28;20056;-68
2022/04/28 12:23:31;;;;;;;;;;;;;;;26.56;33.53;101442.97;10487225;28;19931;-67
2022/04/28 12:28:36;;;;;;;;;;;;;;;26.15;33.34;101440.06;10500884;28;19924;-69
2022/04/28 12:33:39;;;;;;;;;;;;;;;25.04;34.28;101438.22;10500694;28;19927;-68
2022/04/28 12:38:49;;;;;;;;;;;;;;;23.86;33.85;101435.34;10500552;28;19920;-63
2022/04/28 12:43:55;;;;;;;;;;;;;;;24.25;37.62;101445.84;10499452;28;19981;-65
2022/04/28 12:48:58;;;;;;;;;;;;;;;23.05;37.48;101445.28;10500245;28;19921;-64
2022/04/28 12:54:10;;;;;;;;;;;;;;;22.04;38.69;101448.69;10501130;28;19932;-66
2022/04/28 12:59:14;;;;;;;;;;;;;;;22.83;37.64;101450.63;10498984;28;20267;-61
2022/04/28 13:04:19;;;;;;;;;;;;;;;22.72;37.99;101447.59;10498754;28;20419;-64
2022/04/28 13:09:24;;;;;;;9.37;3.80;;;;;;;21.75;38.48;101442.72;10499578;28;20255;-66
2022/04/28 13:14:27;;;;;;;7.72;2.88;;;;;;;21.16;41.07;101440.56;10499510;28;20199;-63
2022/04/28 13:19:31;;;;;;;6.65;3.15;;;;;;;23.95;36.96;101429.59;10499706;28;20287;-63
2022/04/28 13:24:35;;;;;;;;;;;;;;;25.60;33.67;101430.78;10499452;28;20082;-63
2022/04/28 13:29:39;;;;;;;;;;;;;;;24.25;35.90;101432.56;10499397;28;19920;-62
2022/04/28 13:34:43;;;;;;;;;;;;;;;23.63;38.86;101433.78;10499470;28;19921;-60
2022/04/28 13:39:48;;;;;;;;;;;;;;;23.46;38.22;101439.00;10499475;28;19920;-62
2022/04/28 13:44:51;;;;;;;;;;;;;;;22.92;36.93;101437.94;10499141;28;19920;-64
2022/04/28 13:49:55;;;;;;;;;;;;;;;23.22;37.60;101425.97;10499169;28;19926;-65
2022/04/28 13:55:00;;;;;;;;;;;;;;;22.78;37.92;101443.81;10504639;28;19921;-62
2022/04/28 14:00:04;;;;;;;;;;;;;;;22.53;38.04;101436.03;10506162;28;20353;-64
2022/04/28 14:05:07;;;;;;;;;;;;;;;22.97;37.66;101435.94;10505959;28;19920;-61
2022/04/28 14:10:13;;;;;;;;;;;;;;;22.42;35.62;101432.97;10505883;28;19920;-64
2022/04/28 14:15:16;;;;;;;;;;;;;;;22.25;37.91;101429.28;10505721;28;19997;-64
2022/04/28 14:20:19;;;;;;;;;;;;;;;21.64;37.81;101430.84;10505281;28;20213;-63
2022/04/28 14:25:23;;;;;;;;;;;;;;;21.98;39.24;101433.91;10505335;28;19997;-57
2022/04/28 14:30:27;;;;;;;5.90;2.90;;;;;;;22.31;38.37;101444.91;10504593;28;20014;-64
2022/04/28 14:35:31;;;;;;;9.17;2.80;;;;;;;20.71;40.72;101450.94;10500871;28;20300;-64
2022/04/28 14:40:35;;;;;;;4.87;2.43;;;;;;;19.87;41.52;101451.94;10501613;28;20283;-63
2022/04/28 14:45:39;;;;;;;10.63;2.93;;;;;;;20.27;42.13;101459.47;10495811;28;20378;-62
2022/04/28 14:56:04;;;;;;;5.67;2.47;;;;;;;21.60;39.08;101450.38;10473535;28;20211;-68
2022/04/28 15:01:09;;;;;;;7.77;2.40;;;;;;;21.27;41.20;101455.13;10503753;28;20361;-67
2022/04/28 15:06:15;;;;;;;5.43;2.80;;;;;;;20.76;39.86;101459.56;10502400;28;20228;-68
2022/04/28 15:11:19;;;;;;;12.10;5.67;;;;;;;20.14;40.61;101466.03;10490389;28;20223;-65
2022/04/28 15:16:22;;;;;;;6.53;2.60;;;;;;;20.04;42.36;101456.66;10497401;28;20300;-70
2022/04/28 15:21:26;;;;;;;6.17;2.70;;;;;;;19.95;42.03;101457.81;10502485;28;20219;-67
2022/04/28 15:26:31;;;;;;;5.30;2.50;;;;;;;19.78;42.01;101469.78;10495787;28;20285;-70
2022/04/28 15:31:37;;;;;;;6.57;3.00;;;;;;;19.70;43.22;101472.66;10460669;28;20673;-69
2022/04/28 15:36:41;;;;;;;8.23;2.97;;;;;;;19.48;41.81;101467.13;10484723;28;20218;-68
2022/04/28 15:41:46;;;;;;;6.90;2.70;;;;;;;19.17;43.15;101473.28;10499770;28;20364;-67
2022/04/28 15:46:49;;;;;;;7.30;3.07;;;;;;;18.94;43.36;101480.94;10501472;28;20611;-67
2022/04/28 15:51:53;;;;;;;7.10;2.80;;;;;;;18.95;45.09;101465.09;10501558;28;20226;-69
2022/04/28 15:56:58;;;;;;;7.83;3.10;;;;;;;18.61;44.36;101477.41;10502058;28;20224;-70
2022/04/28 16:02:01;;;;;;;5.07;2.50;;;;;;;18.46;46.02;101484.81;10501149;28;20243;-73
2022/04/28 16:07:05;;;;;;;7.43;4.30;;;;;;;18.25;44.28;101475.63;10500918;28;20218;-67
2022/04/28 16:12:11;;;;;;;5.87;2.93;;;;;;;17.86;46.54;101477.41;10501105;28;20525;-64
2022/04/28 16:17:14;;;;;;;7.13;2.17;;;;;;;17.68;46.12;101476.94;10500867;28;20251;-66
2022/04/28 16:22:20;;;;;;;9.70;2.70;;;;;;;17.66;46.67;101479.59;10500143;28;20215;-64
2022/04/28 16:27:29;;;;;;;6.27;2.50;;;;;;;17.51;45.84;101486.94;10499869;28;20663;-64
2022/04/28 16:32:34;;;;;;;6.57;2.50;;;;;;;17.26;45.43;101487.38;10499010;28;20280;-64
2022/04/28 16:37:38;;;;;;;10.37;2.30;;;;;;;17.01;47.48;101485.25;10499383;28;20216;-68
2022/04/28 16:42:43;;;;;;;7.03;2.67;;;;;;;16.71;48.21;101493.66;10499382;28;20318;-63
2022/04/28 16:47:47;;;;;;;5.53;2.33;;;;;;;16.57;49.35;101503.50;10499645;28;20684;-64
2022/04/28 16:52:51;;;;;;;9.77;3.30;;;;;;;16.38;50.38;101508.13;10499420;28;20216;-62
2022/04/28 16:57:56;;;;;;;6.60;2.83;;;;;;;16.24;48.89;101507.47;10499464;28;20215;-61
2022/04/28 17:08:37;;;;;;;7.33;2.73;;;;;;;15.81;51.95;101515.06;10499181;28;20318;-69
2022/04/28 17:13:43;;;;;;;7.53;3.27;;;;;;;15.62;53.15;101518.78;10499262;28;20247;-68
2022/04/28 17:18:46;;;;;;;11.53;5.03;;;;;;;15.69;50.64;101527.44;10499297;28;20553;-67
2022/04/28 17:23:50;;;;;;;13.93;6.63;;;;;;;15.37;52.11;101530.41;10503707;28;20216;-68
2022/04/28 17:28:55;;;;;;;8.83;3.23;;;;;;;15.19;54.82;101541.03;10478011;28;20208;-69
2022/04/28 17:33:59;;;;;;;10.97;4.20;;;;;;;14.94;55.96;101545.63;10506508;28;20231;-70
2022/04/28 17:39:04;;;;;;;8.67;3.60;;;;;;;14.82;55.31;101553.59;10506965;28;20579;-70
2022/04/28 17:44:09;;;;;;;11.23;3.73;;;;;;;14.78;53.08;101556.25;10506780;28;20641;-68
2022/04/28 17:49:13;;;;;;;7.80;4.20;;;;;;;14.79;54.19;101561.47;10506833;28;20230;-67
2022/04/28 17:54:16;;;;;;;8.77;4.50;;;;;;;14.65;53.44;101565.91;10481131;28;20312;-69
2022/04/28 18:04:43;;;;;;;10.57;5.30;;;;;;;14.29;56.01;101583.59;10464068;28;20224;-67
2022/04/28 18:09:47;;;;;;;10.93;3.60;;;;;;;14.09;58.57;101585.41;10464203;28;20232;-68
2022/04/28 18:14:53;;;;;;;11.40;3.53;;;;;;;13.90;60.94;101606.38;10464108;28;20224;-67
2022/04/28 18:19:58;;;;;;;7.03;3.43;;;;;;;13.75;61.40;101606.41;10464137;28;20675;-67
2022/04/28 18:25:01;;;;;;;8.23;3.57;;;;;;;13.69;62.01;101611.66;10463695;28;20229;-68
2022/04/28 18:30:07;;;;;;;7.70;3.23;;;;;;;13.57;62.08;101622.13;10469925;28;20350;-66
2022/04/28 18:35:13;;;;;;;7.60;3.13;;;;;;;13.46;61.69;101617.81;10534173;28;20199;-70
2022/04/28 18:45:39;;;;;;;8.73;3.80;;;;;;;13.38;64.08;101629.97;10505066;28;20216;-69
2022/04/28 18:50:43;;;;;;;8.43;4.10;;;;;;;13.27;64.43;101631.72;10504361;28;20245;-68
2022/04/28 18:55:46;;;;;;;12.73;4.60;;;;;;;13.25;67.32;101633.47;10504513;28;20652;-66
2022/04/28 19:00:50;;;;;;;9.97;4.33;;;;;;;13.28;64.48;101639.56;10504349;28;20618;-69
2022/04/28 19:05:54;;;;;;;10.47;4.83;;;;;;;13.31;65.05;101634.31;10502830;28;20707;-67
2022/04/28 19:10:58;;;;;;;8.53;4.23;;;;;;;13.24;nan;101640.41;10503588;28;20203;-66
2022/04/28 19:16:07;;;;;;;9.07;4.10;;;;;;;13.19;62.33;101646.50;10504759;28;20637;-66
2022/04/28 19:21:11;;;;;;;11.47;4.97;;;;;;;13.13;65.52;101649.94;10503910;28;20188;-68
2022/04/28 19:26:14;;;;;;;9.33;3.93;;;;;;;13.02;67.11;101656.91;10503475;28;20358;-68
2022/04/28 19:31:19;;;;;;;9.33;4.50;;;;;;;12.97;66.84;101657.75;10502508;28;20188;-68
2022/04/28 19:36:23;;;;;;;8.33;4.40;;;;;;;12.95;65.41;101664.69;10502372;28;20220;-65
2022/04/28 19:41:27;;;;;;;9.23;4.47;;;;;;;12.84;69.95;101664.66;10502043;28;20640;-67
2022/04/28 19:46:31;;;;;;;9.50;4.53;;;;;;;12.77;70.81;101669.00;10503452;28;20226;-69
2022/04/28 19:51:37;;;;;;;10.10;4.23;;;;;;;12.72;70.93;101682.88;10501411;28;20224;-67
2022/04/28 19:56:41;;;;;;;10.47;4.93;;;;;;;12.67;71.05;101682.00;10501525;28;20653;-66
2022/04/28 20:01:46;;;;;;;9.87;4.27;;;;;;;12.64;71.76;101682.00;10477596;28;20288;-69
2022/04/28 20:06:49;;;;;;;9.03;4.67;;;;;;;12.58;69.92;101682.84;10460507;28;20558;-68
2022/04/28 20:11:53;;;;;;;14.27;6.90;;;;;;;12.57;73.16;101680.25;10482837;28;20442;-68
2022/04/28 20:16:57;;;;;;;10.90;5.07;;;;;;;12.49;72.82;101689.78;10498773;28;20222;-64
2022/04/28 20:22:05;;;;;;;9.20;4.13;;;;;;;12.40;73.47;101697.56;10497643;28;20561;-65
2022/04/28 20:27:11;;;;;;;7.53;3.63;;;;;;;12.42;70.60;101688.00;10499723;28;20215;-67
2022/04/28 20:32:16;;;;;;;10.13;4.33;;;;;;;12.34;71.07;101689.69;10499690;28;20208;-69
2022/04/28 20:37:20;;;;;;;11.00;5.30;;;;;;;12.30;71.52;101690.56;10499489;28;20222;-66
2022/04/28 20:42:23;;;;;;;12.68;5.85;;;;;;;12.22;71.99;101697.47;10495645;28;20877;-70
2022/04/28 20:47:28;;;;;;;10.57;5.17;;;;;;;12.18;72.54;101698.31;10500063;28;20216;-68
2022/04/28 20:52:33;;;;;;;11.43;5.73;;;;;;;12.10;69.56;101700.88;10499250;28;20208;-67
2022/04/28 20:57:38;;;;;;;13.23;6.53;;;;;;;12.05;71.48;101710.41;10499602;28;20235;-68
2022/04/28 21:02:42;;;;;;;13.37;7.40;;;;;;;11.91;70.24;101708.59;10501898;28;20234;-68
2022/04/28 21:07:46;;;;;;;13.83;7.30;;;;;;;11.86;70.01;101710.28;10507778;28;20602;-71
2022/04/28 21:12:51;;;;;;;13.80;7.63;;;;;;;11.83;69.68;101720.66;10507328;28;20565;-68
2022/04/28 21:17:55;;;;;;;16.27;7.60;;;;;;;11.69;74.11;101717.09;10508084;28;20281;-67
2022/04/28 21:22:59;;;;;;;15.97;8.13;;;;;;;11.53;73.78;101719.56;10506827;28;20212;-65
2022/04/28 21:28:03;;;;;;;14.43;8.23;;;;;;;11.50;71.35;101722.13;10505834;28;20238;-67
2022/04/28 21:33:09;;;;;;;16.03;8.87;;;;;;;11.37;73.03;101725.47;10506480;28;20666;-66
2022/04/28 21:38:12;;;;;;;17.13;9.37;;;;;;;11.32;75.79;101723.72;10506002;28;20220;-71
2022/04/28 21:43:15;;;;;;;17.10;9.17;;;;;;;11.21;76.79;101723.63;10505266;28;20208;-68
2022/04/28 21:48:20;;;;;;;18.03;9.53;;;;;;;11.10;77.37;101727.84;10506899;28;20212;-69
2022/04/28 21:53:44;;;;;;;20.13;9.60;;;;;;;11.00;77.28;101727.72;10504163;28;20222;-67
2022/04/28 21:58:47;;;;;;;16.00;9.20;;;;;;;10.94;78.93;101720.72;10505555;28;20218;-69
2022/04/28 22:14:34;;;;;;;16.53;9.03;;;;;;;10.69;81.05;101726.53;10505869;28;20544;-69
2022/04/28 22:19:40;;;;;;;17.13;9.47;;;;;;;10.63;80.61;101725.59;10506009;28;20208;-69
2022/04/28 22:24:44;;;;;;;16.23;9.30;;;;;;;10.49;81.73;101733.22;10505666;28;20241;-66
2022/04/28 22:35:25;;;;;;;18.47;9.33;;;;;;;10.34;84.20;101728.72;10492999;28;20240;-67
2022/04/28 22:40:31;;;;;;;20.40;10.63;;;;;;;10.26;84.23;101721.69;10505156;28;20212;-68
2022/04/28 22:45:34;;;;;;;19.30;10.40;;;;;;;10.14;85.03;101713.72;10503675;28;20234;-67
2022/04/28 22:50:39;;;;;;;18.73;9.93;;;;;;;10.02;86.56;101722.19;10473171;28;20220;-69
